sensor_id;sensor_type;location;lat;lon;timestamp;P1;durP1;ratioP1;P2;durP2;ratioP2
69188;SDS011;56302;52.322;5.926;2023-05-10T00:01:10;12.30;;;5.53;;
69188;SDS011;56302;52.322;5.926;2023-05-10T00:03:36;13.30;;;6.20;;
69188;SDS011;56302;52.322;5.926;2023-05-10T00:06:01;10.68;;;5.95;;
69188;SDS011;56302;52.322;5.926;2023-05-10T00:08:27;10.90;;;5.83;;
69188;SDS011;56302;52.322;5.926;2023-05-10T00:10:53;13.00;;;6.67;;
69188;SDS011;56302;52.322;5.926;2023-05-10T00:13:18;11.95;;;6.78;;
69188;SDS011;56302;52.322;5.926;2023-05-10T00:15:44;12.60;;;6.50;;
69188;SDS011;56302;52.322;5.926;2023-05-10T00:18:09;11.27;;;6.43;;
69188;SDS011;56302;52.322;5.926;2023-05-10T00:20:35;12.37;;;6.50;;
69188;SDS011;56302;52.322;5.926;2023-05-10T00:23:01;16.88;;;7.40;;
69188;SDS011;56302;52.322;5.926;2023-05-10T00:25:26;15.13;;;7.53;;
69188;SDS011;56302;52.322;5.926;2023-05-10T00:27:52;11.47;;;6.90;;
69188;SDS011;56302;52.322;5.926;2023-05-10T00:30:20;13.18;;;7.57;;
69188;SDS011;56302;52.322;5.926;2023-05-10T00:32:45;13.38;;;7.65;;
69188;SDS011;56302;52.322;5.926;2023-05-10T00:35:13;11.27;;;7.00;;
69188;SDS011;56302;52.322;5.926;2023-05-10T00:37:38;11.43;;;7.30;;
69188;SDS011;56302;52.322;5.926;2023-05-10T00:40:04;12.77;;;7.53;;
69188;SDS011;56302;52.322;5.926;2023-05-10T00:42:31;12.85;;;7.85;;
69188;SDS011;56302;52.322;5.926;2023-05-10T00:44:56;12.97;;;7.37;;
69188;SDS011;56302;52.322;5.926;2023-05-10T00:47:22;13.75;;;8.15;;
69188;SDS011;56302;52.322;5.926;2023-05-10T00:49:48;15.43;;;9.18;;
69188;SDS011;56302;52.322;5.926;2023-05-10T00:52:14;14.47;;;8.93;;
69188;SDS011;56302;52.322;5.926;2023-05-10T00:54:40;13.65;;;8.48;;
69188;SDS011;56302;52.322;5.926;2023-05-10T00:57:06;16.60;;;8.80;;
69188;SDS011;56302;52.322;5.926;2023-05-10T00:59:31;14.37;;;8.97;;
69188;SDS011;56302;52.322;5.926;2023-05-10T01:01:57;13.82;;;8.63;;
69188;SDS011;56302;52.322;5.926;2023-05-10T01:04:23;15.50;;;8.45;;
69188;SDS011;56302;52.322;5.926;2023-05-10T01:06:50;15.70;;;8.93;;
69188;SDS011;56302;52.322;5.926;2023-05-10T01:09:17;17.55;;;9.85;;
69188;SDS011;56302;52.322;5.926;2023-05-10T01:11:43;15.73;;;8.93;;
69188;SDS011;56302;52.322;5.926;2023-05-10T01:14:09;16.83;;;9.57;;
69188;SDS011;56302;52.322;5.926;2023-05-10T01:16:36;18.95;;;9.77;;
69188;SDS011;56302;52.322;5.926;2023-05-10T01:19:08;18.75;;;10.38;;
69188;SDS011;56302;52.322;5.926;2023-05-10T01:21:48;18.17;;;10.00;;
69188;SDS011;56302;52.322;5.926;2023-05-10T01:30:42;21.20;;;10.65;;
69188;SDS011;56302;52.322;5.926;2023-05-10T01:33:30;20.88;;;11.48;;
69188;SDS011;56302;52.322;5.926;2023-05-10T01:36:26;25.63;;;11.85;;
69188;SDS011;56302;52.322;5.926;2023-05-10T01:38:59;27.55;;;12.43;;
69188;SDS011;56302;52.322;5.926;2023-05-10T01:41:42;20.08;;;11.70;;
69188;SDS011;56302;52.322;5.926;2023-05-10T01:44:34;27.33;;;12.40;;
69188;SDS011;56302;52.322;5.926;2023-05-10T01:47:15;23.33;;;12.80;;
69188;SDS011;56302;52.322;5.926;2023-05-10T01:49:55;26.48;;;13.85;;
69188;SDS011;56302;52.322;5.926;2023-05-10T01:52:26;26.92;;;13.70;;
69188;SDS011;56302;52.322;5.926;2023-05-10T01:55:16;24.67;;;12.65;;
69188;SDS011;56302;52.322;5.926;2023-05-10T01:57:43;24.92;;;13.82;;
69188;SDS011;56302;52.322;5.926;2023-05-10T02:00:11;30.92;;;14.80;;
69188;SDS011;56302;52.322;5.926;2023-05-10T02:02:39;30.08;;;15.10;;
69188;SDS011;56302;52.322;5.926;2023-05-10T02:05:07;34.13;;;15.27;;
69188;SDS011;56302;52.322;5.926;2023-05-10T02:07:34;31.17;;;14.50;;
69188;SDS011;56302;52.322;5.926;2023-05-10T02:10:02;31.05;;;14.55;;
69188;SDS011;56302;52.322;5.926;2023-05-10T02:12:30;27.63;;;15.25;;
69188;SDS011;56302;52.322;5.926;2023-05-10T02:14:59;32.20;;;15.18;;
69188;SDS011;56302;52.322;5.926;2023-05-10T02:17:27;35.67;;;16.73;;
69188;SDS011;56302;52.322;5.926;2023-05-10T02:19:55;37.88;;;17.88;;
69188;SDS011;56302;52.322;5.926;2023-05-10T02:22:22;36.75;;;17.15;;
69188;SDS011;56302;52.322;5.926;2023-05-10T02:24:49;38.78;;;17.98;;
69188;SDS011;56302;52.322;5.926;2023-05-10T02:27:15;37.42;;;16.02;;
69188;SDS011;56302;52.322;5.926;2023-05-10T02:29:44;40.65;;;18.05;;
69188;SDS011;56302;52.322;5.926;2023-05-10T02:32:11;39.63;;;18.48;;
69188;SDS011;56302;52.322;5.926;2023-05-10T02:34:38;39.10;;;18.33;;
69188;SDS011;56302;52.322;5.926;2023-05-10T02:37:04;41.90;;;19.23;;
69188;SDS011;56302;52.322;5.926;2023-05-10T02:39:31;45.80;;;19.42;;
69188;SDS011;56302;52.322;5.926;2023-05-10T02:41:57;46.92;;;20.15;;
69188;SDS011;56302;52.322;5.926;2023-05-10T02:44:24;43.00;;;19.70;;
69188;SDS011;56302;52.322;5.926;2023-05-10T02:46:53;44.67;;;19.55;;
69188;SDS011;56302;52.322;5.926;2023-05-10T02:49:20;48.50;;;19.83;;
69188;SDS011;56302;52.322;5.926;2023-05-10T02:51:56;47.60;;;20.35;;
69188;SDS011;56302;52.322;5.926;2023-05-10T02:54:27;49.20;;;19.13;;
69188;SDS011;56302;52.322;5.926;2023-05-10T02:56:57;45.05;;;19.92;;
69188;SDS011;56302;52.322;5.926;2023-05-10T02:59:25;48.90;;;19.97;;
69188;SDS011;56302;52.322;5.926;2023-05-10T03:01:51;47.20;;;19.52;;
69188;SDS011;56302;52.322;5.926;2023-05-10T03:04:17;47.80;;;20.08;;
69188;SDS011;56302;52.322;5.926;2023-05-10T03:06:42;53.93;;;21.07;;
69188;SDS011;56302;52.322;5.926;2023-05-10T03:09:09;55.92;;;22.02;;
69188;SDS011;56302;52.322;5.926;2023-05-10T03:11:42;56.08;;;21.20;;
69188;SDS011;56302;52.322;5.926;2023-05-10T03:14:25;53.17;;;21.23;;
69188;SDS011;56302;52.322;5.926;2023-05-10T03:17:00;53.33;;;22.17;;
69188;SDS011;56302;52.322;5.926;2023-05-10T03:19:47;55.63;;;22.08;;
69188;SDS011;56302;52.322;5.926;2023-05-10T03:22:21;56.95;;;22.45;;
69188;SDS011;56302;52.322;5.926;2023-05-10T03:24:51;54.00;;;20.98;;
69188;SDS011;56302;52.322;5.926;2023-05-10T03:27:21;56.53;;;22.23;;
69188;SDS011;56302;52.322;5.926;2023-05-10T03:29:48;57.75;;;22.08;;
69188;SDS011;56302;52.322;5.926;2023-05-10T03:32:16;59.38;;;22.55;;
69188;SDS011;56302;52.322;5.926;2023-05-10T03:34:41;57.38;;;22.13;;
69188;SDS011;56302;52.322;5.926;2023-05-10T03:37:08;61.35;;;22.50;;
69188;SDS011;56302;52.322;5.926;2023-05-10T03:39:33;61.60;;;23.95;;
69188;SDS011;56302;52.322;5.926;2023-05-10T03:41:59;57.40;;;23.03;;
69188;SDS011;56302;52.322;5.926;2023-05-10T03:44:25;66.50;;;25.73;;
69188;SDS011;56302;52.322;5.926;2023-05-10T03:46:50;63.60;;;23.08;;
69188;SDS011;56302;52.322;5.926;2023-05-10T03:49:16;66.70;;;25.33;;
69188;SDS011;56302;52.322;5.926;2023-05-10T03:51:41;72.53;;;24.90;;
69188;SDS011;56302;52.322;5.926;2023-05-10T03:54:07;62.10;;;24.02;;
69188;SDS011;56302;52.322;5.926;2023-05-10T03:56:32;65.80;;;25.23;;
69188;SDS011;56302;52.322;5.926;2023-05-10T03:58:58;65.97;;;25.07;;
69188;SDS011;56302;52.322;5.926;2023-05-10T04:01:23;68.82;;;25.60;;
69188;SDS011;56302;52.322;5.926;2023-05-10T04:03:49;64.90;;;25.75;;
69188;SDS011;56302;52.322;5.926;2023-05-10T04:06:14;59.90;;;24.37;;
69188;SDS011;56302;52.322;5.926;2023-05-10T04:08:40;68.23;;;25.00;;
69188;SDS011;56302;52.322;5.926;2023-05-10T04:11:09;64.03;;;23.77;;
69188;SDS011;56302;52.322;5.926;2023-05-10T04:13:35;65.80;;;25.00;;
69188;SDS011;56302;52.322;5.926;2023-05-10T04:16:01;61.97;;;24.83;;
69188;SDS011;56302;52.322;5.926;2023-05-10T04:18:27;69.93;;;24.70;;
69188;SDS011;56302;52.322;5.926;2023-05-10T04:20:53;59.75;;;24.20;;
69188;SDS011;56302;52.322;5.926;2023-05-10T04:23:18;60.35;;;23.33;;
69188;SDS011;56302;52.322;5.926;2023-05-10T04:25:44;56.87;;;23.30;;
69188;SDS011;56302;52.322;5.926;2023-05-10T04:28:09;62.03;;;24.23;;
69188;SDS011;56302;52.322;5.926;2023-05-10T04:30:35;61.40;;;24.08;;
69188;SDS011;56302;52.322;5.926;2023-05-10T04:33:00;60.20;;;23.43;;
69188;SDS011;56302;52.322;5.926;2023-05-10T04:35:26;55.72;;;22.65;;
69188;SDS011;56302;52.322;5.926;2023-05-10T04:37:53;59.95;;;24.42;;
69188;SDS011;56302;52.322;5.926;2023-05-10T04:40:18;57.03;;;23.27;;
69188;SDS011;56302;52.322;5.926;2023-05-10T04:42:44;66.55;;;24.77;;
69188;SDS011;56302;52.322;5.926;2023-05-10T04:45:10;61.20;;;23.75;;
69188;SDS011;56302;52.322;5.926;2023-05-10T04:47:36;65.77;;;24.53;;
69188;SDS011;56302;52.322;5.926;2023-05-10T04:50:02;71.53;;;26.23;;
69188;SDS011;56302;52.322;5.926;2023-05-10T04:52:28;64.05;;;23.73;;
69188;SDS011;56302;52.322;5.926;2023-05-10T04:54:54;72.38;;;24.45;;
69188;SDS011;56302;52.322;5.926;2023-05-10T04:57:19;80.10;;;25.53;;
69188;SDS011;56302;52.322;5.926;2023-05-10T04:59:45;76.53;;;26.83;;
69188;SDS011;56302;52.322;5.926;2023-05-10T05:02:10;66.90;;;24.63;;
69188;SDS011;56302;52.322;5.926;2023-05-10T05:04:36;73.83;;;26.10;;
69188;SDS011;56302;52.322;5.926;2023-05-10T05:07:02;75.17;;;25.87;;
69188;SDS011;56302;52.322;5.926;2023-05-10T05:09:27;70.75;;;25.48;;
69188;SDS011;56302;52.322;5.926;2023-05-10T05:11:53;75.87;;;26.13;;
69188;SDS011;56302;52.322;5.926;2023-05-10T05:14:18;69.10;;;25.33;;
69188;SDS011;56302;52.322;5.926;2023-05-10T05:16:45;74.88;;;25.77;;
69188;SDS011;56302;52.322;5.926;2023-05-10T05:19:11;70.20;;;26.15;;
69188;SDS011;56302;52.322;5.926;2023-05-10T05:21:37;62.20;;;23.43;;
69188;SDS011;56302;52.322;5.926;2023-05-10T05:24:02;67.87;;;25.43;;
69188;SDS011;56302;52.322;5.926;2023-05-10T05:26:28;66.07;;;25.85;;
69188;SDS011;56302;52.322;5.926;2023-05-10T05:28:54;68.93;;;25.27;;
69188;SDS011;56302;52.322;5.926;2023-05-10T05:31:19;63.47;;;23.98;;
69188;SDS011;56302;52.322;5.926;2023-05-10T05:33:45;71.05;;;24.70;;
69188;SDS011;56302;52.322;5.926;2023-05-10T05:36:11;82.80;;;25.13;;
69188;SDS011;56302;52.322;5.926;2023-05-10T05:38:36;80.47;;;24.10;;
69188;SDS011;56302;52.322;5.926;2023-05-10T05:41:02;74.88;;;24.45;;
69188;SDS011;56302;52.322;5.926;2023-05-10T05:43:28;83.57;;;26.00;;
69188;SDS011;56302;52.322;5.926;2023-05-10T05:45:53;83.68;;;26.27;;
69188;SDS011;56302;52.322;5.926;2023-05-10T05:48:19;86.60;;;26.13;;
69188;SDS011;56302;52.322;5.926;2023-05-10T05:50:45;94.60;;;26.65;;
69188;SDS011;56302;52.322;5.926;2023-05-10T05:53:10;83.30;;;26.13;;
69188;SDS011;56302;52.322;5.926;2023-05-10T05:55:36;82.50;;;25.20;;
69188;SDS011;56302;52.322;5.926;2023-05-10T05:58:02;88.43;;;26.40;;
69188;SDS011;56302;52.322;5.926;2023-05-10T06:00:28;83.72;;;23.88;;
69188;SDS011;56302;52.322;5.926;2023-05-10T06:02:53;89.50;;;24.93;;
69188;SDS011;56302;52.322;5.926;2023-05-10T06:05:19;85.45;;;24.65;;
69188;SDS011;56302;52.322;5.926;2023-05-10T06:07:45;88.88;;;25.45;;
69188;SDS011;56302;52.322;5.926;2023-05-10T06:10:11;89.93;;;25.33;;
69188;SDS011;56302;52.322;5.926;2023-05-10T06:12:36;82.30;;;25.30;;
69188;SDS011;56302;52.322;5.926;2023-05-10T06:15:02;86.35;;;24.60;;
69188;SDS011;56302;52.322;5.926;2023-05-10T06:17:28;81.20;;;25.93;;
69188;SDS011;56302;52.322;5.926;2023-05-10T06:19:55;80.82;;;24.45;;
69188;SDS011;56302;52.322;5.926;2023-05-10T06:22:20;82.22;;;23.38;;
69188;SDS011;56302;52.322;5.926;2023-05-10T06:24:47;69.63;;;23.00;;
69188;SDS011;56302;52.322;5.926;2023-05-10T06:27:13;79.68;;;24.67;;
69188;SDS011;56302;52.322;5.926;2023-05-10T06:29:39;81.77;;;25.83;;
69188;SDS011;56302;52.322;5.926;2023-05-10T06:32:04;74.73;;;24.23;;
69188;SDS011;56302;52.322;5.926;2023-05-10T06:34:30;74.47;;;23.73;;
69188;SDS011;56302;52.322;5.926;2023-05-10T06:36:56;70.20;;;23.15;;
69188;SDS011;56302;52.322;5.926;2023-05-10T06:39:22;75.45;;;23.30;;
69188;SDS011;56302;52.322;5.926;2023-05-10T06:42:01;77.15;;;23.73;;
69188;SDS011;56302;52.322;5.926;2023-05-10T06:44:27;73.20;;;22.50;;
69188;SDS011;56302;52.322;5.926;2023-05-10T06:46:53;72.90;;;23.17;;
69188;SDS011;56302;52.322;5.926;2023-05-10T06:49:20;63.53;;;22.87;;
69188;SDS011;56302;52.322;5.926;2023-05-10T06:51:45;72.03;;;23.85;;
69188;SDS011;56302;52.322;5.926;2023-05-10T06:54:11;63.87;;;24.53;;
69188;SDS011;56302;52.322;5.926;2023-05-10T06:56:36;58.67;;;21.87;;
69188;SDS011;56302;52.322;5.926;2023-05-10T06:59:02;64.57;;;23.70;;
69188;SDS011;56302;52.322;5.926;2023-05-10T07:01:28;63.63;;;21.90;;
69188;SDS011;56302;52.322;5.926;2023-05-10T07:03:53;55.38;;;21.98;;
69188;SDS011;56302;52.322;5.926;2023-05-10T07:06:19;50.63;;;21.57;;
69188;SDS011;56302;52.322;5.926;2023-05-10T07:08:44;55.38;;;21.10;;
69188;SDS011;56302;52.322;5.926;2023-05-10T07:11:10;50.38;;;19.40;;
69188;SDS011;56302;52.322;5.926;2023-05-10T07:13:36;52.67;;;19.73;;
69188;SDS011;56302;52.322;5.926;2023-05-10T07:16:02;49.42;;;20.10;;
69188;SDS011;56302;52.322;5.926;2023-05-10T07:18:29;40.70;;;15.75;;
69188;SDS011;56302;52.322;5.926;2023-05-10T07:20:54;39.43;;;15.97;;
69188;SDS011;56302;52.322;5.926;2023-05-10T07:23:21;40.22;;;15.38;;
69188;SDS011;56302;52.322;5.926;2023-05-10T07:25:50;38.00;;;15.33;;
69188;SDS011;56302;52.322;5.926;2023-05-10T07:28:17;35.67;;;14.90;;
69188;SDS011;56302;52.322;5.926;2023-05-10T07:30:43;32.15;;;12.73;;
69188;SDS011;56302;52.322;5.926;2023-05-10T07:33:09;29.30;;;12.43;;
69188;SDS011;56302;52.322;5.926;2023-05-10T07:35:36;26.10;;;12.15;;
69188;SDS011;56302;52.322;5.926;2023-05-10T07:38:01;26.90;;;10.50;;
69188;SDS011;56302;52.322;5.926;2023-05-10T07:40:27;26.50;;;11.60;;
69188;SDS011;56302;52.322;5.926;2023-05-10T07:42:53;23.75;;;10.60;;
69188;SDS011;56302;52.322;5.926;2023-05-10T07:45:19;24.23;;;11.00;;
69188;SDS011;56302;52.322;5.926;2023-05-10T07:47:45;23.85;;;10.95;;
69188;SDS011;56302;52.322;5.926;2023-05-10T07:50:10;23.43;;;10.20;;
69188;SDS011;56302;52.322;5.926;2023-05-10T07:52:36;26.23;;;10.45;;
69188;SDS011;56302;52.322;5.926;2023-05-10T07:55:01;20.55;;;9.60;;
69188;SDS011;56302;52.322;5.926;2023-05-10T07:57:27;22.40;;;9.40;;
69188;SDS011;56302;52.322;5.926;2023-05-10T07:59:52;23.95;;;9.13;;
69188;SDS011;56302;52.322;5.926;2023-05-10T08:02:18;28.77;;;9.95;;
69188;SDS011;56302;52.322;5.926;2023-05-10T08:04:43;23.80;;;9.57;;
69188;SDS011;56302;52.322;5.926;2023-05-10T08:07:09;20.63;;;9.87;;
69188;SDS011;56302;52.322;5.926;2023-05-10T08:09:35;21.85;;;8.98;;
69188;SDS011;56302;52.322;5.926;2023-05-10T08:12:01;20.30;;;8.50;;
69188;SDS011;56302;52.322;5.926;2023-05-10T08:14:27;18.88;;;9.07;;
69188;SDS011;56302;52.322;5.926;2023-05-10T08:16:54;21.05;;;8.15;;
69188;SDS011;56302;52.322;5.926;2023-05-10T08:19:20;22.00;;;9.23;;
69188;SDS011;56302;52.322;5.926;2023-05-10T08:21:46;19.92;;;8.07;;
69188;SDS011;56302;52.322;5.926;2023-05-10T08:24:12;18.73;;;7.57;;
69188;SDS011;56302;52.322;5.926;2023-05-10T08:26:37;19.30;;;7.77;;
69188;SDS011;56302;52.322;5.926;2023-05-10T08:29:03;20.38;;;7.45;;
69188;SDS011;56302;52.322;5.926;2023-05-10T08:31:28;15.90;;;7.67;;
69188;SDS011;56302;52.322;5.926;2023-05-10T08:33:54;17.13;;;8.03;;
69188;SDS011;56302;52.322;5.926;2023-05-10T08:36:20;14.55;;;7.20;;
69188;SDS011;56302;52.322;5.926;2023-05-10T08:38:50;16.98;;;7.82;;
69188;SDS011;56302;52.322;5.926;2023-05-10T08:41:17;16.63;;;6.95;;
69188;SDS011;56302;52.322;5.926;2023-05-10T08:43:47;15.88;;;6.25;;
69188;SDS011;56302;52.322;5.926;2023-05-10T08:46:16;21.42;;;6.60;;
69188;SDS011;56302;52.322;5.926;2023-05-10T08:48:46;17.00;;;6.73;;
69188;SDS011;56302;52.322;5.926;2023-05-10T08:51:14;16.02;;;6.57;;
69188;SDS011;56302;52.322;5.926;2023-05-10T08:53:43;15.85;;;7.07;;
69188;SDS011;56302;52.322;5.926;2023-05-10T08:56:09;15.10;;;7.55;;
69188;SDS011;56302;52.322;5.926;2023-05-10T08:58:35;16.97;;;7.40;;
69188;SDS011;56302;52.322;5.926;2023-05-10T09:01:01;13.35;;;6.82;;
69188;SDS011;56302;52.322;5.926;2023-05-10T09:03:28;16.27;;;7.72;;
69188;SDS011;56302;52.322;5.926;2023-05-10T09:05:54;15.48;;;7.38;;
69188;SDS011;56302;52.322;5.926;2023-05-10T09:08:23;14.20;;;7.33;;
69188;SDS011;56302;52.322;5.926;2023-05-10T09:10:56;16.15;;;7.43;;
69188;SDS011;56302;52.322;5.926;2023-05-10T09:13:22;15.82;;;7.68;;
69188;SDS011;56302;52.322;5.926;2023-05-10T09:15:49;15.75;;;7.35;;
69188;SDS011;56302;52.322;5.926;2023-05-10T09:18:15;11.75;;;6.65;;
69188;SDS011;56302;52.322;5.926;2023-05-10T09:20:41;15.63;;;6.30;;
69188;SDS011;56302;52.322;5.926;2023-05-10T09:23:07;15.15;;;6.93;;
69188;SDS011;56302;52.322;5.926;2023-05-10T09:25:33;13.27;;;6.43;;
69188;SDS011;56302;52.322;5.926;2023-05-10T09:27:59;11.43;;;6.10;;
69188;SDS011;56302;52.322;5.926;2023-05-10T09:30:26;13.13;;;6.07;;
69188;SDS011;56302;52.322;5.926;2023-05-10T09:32:53;15.23;;;6.82;;
69188;SDS011;56302;52.322;5.926;2023-05-10T09:35:23;17.48;;;6.65;;
69188;SDS011;56302;52.322;5.926;2023-05-10T09:37:59;15.90;;;6.57;;
69188;SDS011;56302;52.322;5.926;2023-05-10T09:40:27;17.75;;;7.07;;
69188;SDS011;56302;52.322;5.926;2023-05-10T09:42:58;14.05;;;6.60;;
69188;SDS011;56302;52.322;5.926;2023-05-10T09:45:27;13.00;;;6.43;;
69188;SDS011;56302;52.322;5.926;2023-05-10T09:47:54;11.18;;;5.72;;
69188;SDS011;56302;52.322;5.926;2023-05-10T09:50:20;15.98;;;5.80;;
69188;SDS011;56302;52.322;5.926;2023-05-10T09:52:50;12.50;;;6.38;;
69188;SDS011;56302;52.322;5.926;2023-05-10T09:55:21;10.70;;;5.07;;
69188;SDS011;56302;52.322;5.926;2023-05-10T09:57:48;13.07;;;4.70;;
69188;SDS011;56302;52.322;5.926;2023-05-10T10:00:16;8.05;;;3.92;;
69188;SDS011;56302;52.322;5.926;2023-05-10T10:02:44;7.30;;;3.13;;
69188;SDS011;56302;52.322;5.926;2023-05-10T10:05:11;9.02;;;2.58;;
69188;SDS011;56302;52.322;5.926;2023-05-10T10:07:36;8.45;;;3.20;;
69188;SDS011;56302;52.322;5.926;2023-05-10T10:10:03;8.50;;;3.10;;
69188;SDS011;56302;52.322;5.926;2023-05-10T10:12:29;7.10;;;3.15;;
69188;SDS011;56302;52.322;5.926;2023-05-10T10:14:55;7.65;;;3.10;;
69188;SDS011;56302;52.322;5.926;2023-05-10T10:17:21;7.72;;;3.95;;
69188;SDS011;56302;52.322;5.926;2023-05-10T10:19:51;10.00;;;4.10;;
69188;SDS011;56302;52.322;5.926;2023-05-10T10:22:17;10.70;;;3.28;;
69188;SDS011;56302;52.322;5.926;2023-05-10T10:24:42;8.45;;;3.28;;
69188;SDS011;56302;52.322;5.926;2023-05-10T10:27:24;11.03;;;4.13;;
69188;SDS011;56302;52.322;5.926;2023-05-10T10:30:12;9.25;;;4.03;;
69188;SDS011;56302;52.322;5.926;2023-05-10T10:32:59;8.82;;;4.22;;
69188;SDS011;56302;52.322;5.926;2023-05-10T10:35:36;12.73;;;4.43;;
69188;SDS011;56302;52.322;5.926;2023-05-10T10:38:02;11.07;;;4.47;;
69188;SDS011;56302;52.322;5.926;2023-05-10T10:40:28;11.80;;;4.88;;
69188;SDS011;56302;52.322;5.926;2023-05-10T10:42:55;13.80;;;4.93;;
69188;SDS011;56302;52.322;5.926;2023-05-10T10:45:22;10.30;;;5.18;;
69188;SDS011;56302;52.322;5.926;2023-05-10T10:47:49;14.40;;;5.30;;
69188;SDS011;56302;52.322;5.926;2023-05-10T10:50:18;9.80;;;4.78;;
69188;SDS011;56302;52.322;5.926;2023-05-10T10:52:44;12.27;;;5.37;;
69188;SDS011;56302;52.322;5.926;2023-05-10T10:55:14;12.15;;;5.53;;
69188;SDS011;56302;52.322;5.926;2023-05-10T11:00:37;10.30;;;6.07;;
69188;SDS011;56302;52.322;5.926;2023-05-10T11:03:06;13.15;;;5.57;;
69188;SDS011;56302;52.322;5.926;2023-05-10T11:05:43;10.57;;;5.38;;
69188;SDS011;56302;52.322;5.926;2023-05-10T11:11:01;14.70;;;6.68;;
69188;SDS011;56302;52.322;5.926;2023-05-10T11:15:59;12.20;;;5.30;;
69188;SDS011;56302;52.322;5.926;2023-05-10T11:18:56;12.90;;;5.85;;
69188;SDS011;56302;52.322;5.926;2023-05-10T11:21:32;11.85;;;5.82;;
69188;SDS011;56302;52.322;5.926;2023-05-10T11:24:00;12.77;;;4.60;;
69188;SDS011;56302;52.322;5.926;2023-05-10T11:26:31;14.52;;;5.38;;
69188;SDS011;56302;52.322;5.926;2023-05-10T11:28:59;12.77;;;5.93;;
69188;SDS011;56302;52.322;5.926;2023-05-10T11:31:25;11.18;;;4.95;;
69188;SDS011;56302;52.322;5.926;2023-05-10T11:33:52;11.85;;;6.03;;
69188;SDS011;56302;52.322;5.926;2023-05-10T11:36:20;14.32;;;5.95;;
69188;SDS011;56302;52.322;5.926;2023-05-10T11:38:48;15.05;;;5.13;;
69188;SDS011;56302;52.322;5.926;2023-05-10T11:41:15;14.40;;;5.45;;
69188;SDS011;56302;52.322;5.926;2023-05-10T11:43:42;8.75;;;5.30;;
69188;SDS011;56302;52.322;5.926;2023-05-10T11:46:11;11.27;;;5.40;;
69188;SDS011;56302;52.322;5.926;2023-05-10T11:48:41;11.15;;;5.07;;
69188;SDS011;56302;52.322;5.926;2023-05-10T11:51:07;9.10;;;5.07;;
69188;SDS011;56302;52.322;5.926;2023-05-10T11:53:34;8.63;;;4.85;;
69188;SDS011;56302;52.322;5.926;2023-05-10T11:56:07;11.45;;;4.43;;
69188;SDS011;56302;52.322;5.926;2023-05-10T11:58:34;7.10;;;3.63;;
69188;SDS011;56302;52.322;5.926;2023-05-10T12:01:01;9.07;;;4.18;;
69188;SDS011;56302;52.322;5.926;2023-05-10T12:03:28;8.68;;;4.03;;
69188;SDS011;56302;52.322;5.926;2023-05-10T12:05:54;6.78;;;3.70;;
69188;SDS011;56302;52.322;5.926;2023-05-10T12:08:21;8.75;;;3.80;;
69188;SDS011;56302;52.322;5.926;2023-05-10T12:10:48;8.77;;;3.70;;
69188;SDS011;56302;52.322;5.926;2023-05-10T12:13:14;8.50;;;3.78;;
69188;SDS011;56302;52.322;5.926;2023-05-10T12:15:40;6.85;;;4.00;;
69188;SDS011;56302;52.322;5.926;2023-05-10T12:18:07;10.55;;;3.90;;
69188;SDS011;56302;52.322;5.926;2023-05-10T12:20:37;8.77;;;3.88;;
69188;SDS011;56302;52.322;5.926;2023-05-10T12:23:03;11.48;;;4.63;;
69188;SDS011;56302;52.322;5.926;2023-05-10T12:25:31;6.38;;;3.85;;
69188;SDS011;56302;52.322;5.926;2023-05-10T12:27:58;7.68;;;4.25;;
69188;SDS011;56302;52.322;5.926;2023-05-10T12:30:28;10.82;;;4.35;;
69188;SDS011;56302;52.322;5.926;2023-05-10T12:33:01;10.82;;;4.40;;
69188;SDS011;56302;52.322;5.926;2023-05-10T12:35:31;10.65;;;4.30;;
69188;SDS011;56302;52.322;5.926;2023-05-10T12:37:56;11.77;;;4.35;;
69188;SDS011;56302;52.322;5.926;2023-05-10T12:40:22;10.43;;;4.63;;
69188;SDS011;56302;52.322;5.926;2023-05-10T12:42:48;12.18;;;5.05;;
69188;SDS011;56302;52.322;5.926;2023-05-10T12:45:13;13.25;;;4.45;;
69188;SDS011;56302;52.322;5.926;2023-05-10T12:47:39;8.43;;;4.67;;
69188;SDS011;56302;52.322;5.926;2023-05-10T12:50:05;13.45;;;4.90;;
69188;SDS011;56302;52.322;5.926;2023-05-10T12:52:31;11.40;;;5.82;;
69188;SDS011;56302;52.322;5.926;2023-05-10T12:54:57;13.05;;;4.97;;
69188;SDS011;56302;52.322;5.926;2023-05-10T12:57:23;9.88;;;4.78;;
69188;SDS011;56302;52.322;5.926;2023-05-10T12:59:49;8.82;;;5.10;;
69188;SDS011;56302;52.322;5.926;2023-05-10T13:02:15;8.77;;;4.57;;
69188;SDS011;56302;52.322;5.926;2023-05-10T13:04:43;9.23;;;4.93;;
69188;SDS011;56302;52.322;5.926;2023-05-10T13:07:12;7.97;;;4.03;;
69188;SDS011;56302;52.322;5.926;2023-05-10T13:09:37;7.63;;;4.50;;
69188;SDS011;56302;52.322;5.926;2023-05-10T13:12:03;8.65;;;4.30;;
69188;SDS011;56302;52.322;5.926;2023-05-10T13:14:29;10.80;;;3.60;;
69188;SDS011;56302;52.322;5.926;2023-05-10T13:16:55;9.80;;;4.50;;
69188;SDS011;56302;52.322;5.926;2023-05-10T13:19:20;11.20;;;4.67;;
69188;SDS011;56302;52.322;5.926;2023-05-10T13:21:46;8.95;;;5.00;;
69188;SDS011;56302;52.322;5.926;2023-05-10T13:24:12;8.67;;;4.40;;
69188;SDS011;56302;52.322;5.926;2023-05-10T13:26:42;11.43;;;5.55;;
69188;SDS011;56302;52.322;5.926;2023-05-10T13:29:08;10.80;;;5.53;;
69188;SDS011;56302;52.322;5.926;2023-05-10T13:31:33;11.50;;;5.33;;
69188;SDS011;56302;52.322;5.926;2023-05-10T13:33:59;8.27;;;5.65;;
69188;SDS011;56302;52.322;5.926;2023-05-10T13:36:25;13.25;;;6.32;;
69188;SDS011;56302;52.322;5.926;2023-05-10T13:38:51;9.67;;;5.60;;
69188;SDS011;56302;52.322;5.926;2023-05-10T13:41:16;10.60;;;5.60;;
69188;SDS011;56302;52.322;5.926;2023-05-10T13:43:42;10.32;;;5.32;;
69188;SDS011;56302;52.322;5.926;2023-05-10T13:46:08;10.60;;;5.33;;
69188;SDS011;56302;52.322;5.926;2023-05-10T13:48:33;8.93;;;5.50;;
69188;SDS011;56302;52.322;5.926;2023-05-10T13:50:59;10.45;;;6.03;;
69188;SDS011;56302;52.322;5.926;2023-05-10T13:53:24;12.53;;;6.63;;
69188;SDS011;56302;52.322;5.926;2023-05-10T13:55:50;12.67;;;6.00;;
69188;SDS011;56302;52.322;5.926;2023-05-10T13:58:15;12.82;;;6.32;;
69188;SDS011;56302;52.322;5.926;2023-05-10T14:00:41;10.60;;;6.47;;
69188;SDS011;56302;52.322;5.926;2023-05-10T14:03:06;16.65;;;6.82;;
69188;SDS011;56302;52.322;5.926;2023-05-10T14:05:34;14.97;;;6.10;;
69188;SDS011;56302;52.322;5.926;2023-05-10T14:07:59;13.65;;;6.80;;
69188;SDS011;56302;52.322;5.926;2023-05-10T14:10:25;14.90;;;6.93;;
69188;SDS011;56302;52.322;5.926;2023-05-10T14:12:50;13.17;;;6.70;;
69188;SDS011;56302;52.322;5.926;2023-05-10T14:15:16;12.98;;;7.53;;
69188;SDS011;56302;52.322;5.926;2023-05-10T14:17:41;10.40;;;6.63;;
69188;SDS011;56302;52.322;5.926;2023-05-10T14:20:07;11.60;;;7.07;;
69188;SDS011;56302;52.322;5.926;2023-05-10T14:22:33;11.07;;;6.45;;
69188;SDS011;56302;52.322;5.926;2023-05-10T14:24:59;12.13;;;6.93;;
69188;SDS011;56302;52.322;5.926;2023-05-10T14:27:25;10.55;;;6.35;;
69188;SDS011;56302;52.322;5.926;2023-05-10T14:29:50;12.30;;;6.47;;
69188;SDS011;56302;52.322;5.926;2023-05-10T14:32:16;10.27;;;6.50;;
69188;SDS011;56302;52.322;5.926;2023-05-10T14:34:41;12.85;;;7.03;;
69188;SDS011;56302;52.322;5.926;2023-05-10T14:37:09;12.50;;;6.03;;
69188;SDS011;56302;52.322;5.926;2023-05-10T14:39:36;10.75;;;6.22;;
69188;SDS011;56302;52.322;5.926;2023-05-10T14:42:01;10.63;;;6.07;;
69188;SDS011;56302;52.322;5.926;2023-05-10T14:44:27;9.27;;;5.70;;
69188;SDS011;56302;52.322;5.926;2023-05-10T14:46:53;10.93;;;5.97;;